createdAt,value
2022-12-14T00:02:27.546Z,-0.20
2022-12-14T00:05:12.835Z,-0.20
2022-12-14T00:07:58.302Z,-0.20
2022-12-14T00:10:44.742Z,-0.20
2022-12-14T00:13:30.242Z,-0.20
2022-12-14T00:16:17.982Z,-0.20
2022-12-14T00:19:06.731Z,-0.20
2022-12-14T00:21:56.189Z,-0.20
2022-12-14T00:24:41.910Z,-0.20
2022-12-14T00:27:29.963Z,-0.20
2022-12-14T00:30:18.288Z,-0.20
2022-12-14T00:33:04.562Z,-0.20
2022-12-14T00:35:49.772Z,-0.10
2022-12-14T00:38:35.640Z,-0.20
2022-12-14T00:41:21.037Z,-0.20
2022-12-14T00:44:06.567Z,-0.20
2022-12-14T00:46:52.346Z,-0.20
2022-12-14T00:49:37.660Z,-0.20
2022-12-14T00:52:23.245Z,-0.20
2022-12-14T00:55:09.069Z,-0.20
2022-12-14T00:57:54.724Z,-0.20
2022-12-14T01:00:40.480Z,-0.20
2022-12-14T01:03:27.204Z,-0.20
2022-12-14T01:06:22.498Z,-0.20
2022-12-14T01:09:10.581Z,-0.20
2022-12-14T01:11:55.651Z,-0.20
2022-12-14T01:14:41.325Z,-0.20
2022-12-14T01:17:29.566Z,-0.20
2022-12-14T01:20:15.027Z,-0.20
2022-12-14T01:23:05.422Z,-0.20
2022-12-14T01:25:50.906Z,-0.20
2022-12-14T01:28:39.190Z,-0.20
2022-12-14T01:31:27.587Z,-0.20
2022-12-14T01:34:13.465Z,-0.20
2022-12-14T01:36:59.110Z,-0.20
2022-12-14T01:39:44.954Z,-0.20
2022-12-14T01:42:36.094Z,-0.20
2022-12-14T01:45:22.777Z,-0.20
2022-12-14T01:48:13.114Z,-0.20
2022-12-14T01:51:00.148Z,-0.30
2022-12-14T01:53:46.927Z,-0.30
2022-12-14T01:56:36.262Z,-0.30
2022-12-14T01:59:29.066Z,-0.30
2022-12-14T02:02:17.434Z,-0.30
2022-12-14T02:05:04.658Z,-0.30
2022-12-14T02:07:52.817Z,-0.30
2022-12-14T02:10:38.562Z,-0.40
2022-12-14T02:13:31.696Z,-0.40
2022-12-14T02:16:17.236Z,-0.40
2022-12-14T02:19:04.874Z,-0.50
2022-12-14T02:22:03.766Z,-0.50
2022-12-14T02:25:19.771Z,-0.50
2022-12-14T02:28:27.690Z,-0.50
2022-12-14T02:31:44.489Z,-0.50
2022-12-14T02:34:50.010Z,-0.50
2022-12-14T02:38:14.258Z,-0.50
2022-12-14T02:41:10.638Z,-0.50
2022-12-14T02:44:27.114Z,-0.50
2022-12-14T02:47:45.357Z,-0.60
2022-12-14T02:50:47.114Z,-0.60
2022-12-14T02:53:55.590Z,-0.60
2022-12-14T02:57:04.295Z,-0.70
2022-12-14T02:59:54.118Z,-0.70
2022-12-14T03:02:41.981Z,-0.70
2022-12-14T03:05:28.320Z,-0.70
2022-12-14T03:08:16.693Z,-0.70
2022-12-14T03:11:16.874Z,-0.80
2022-12-14T03:14:27.741Z,-0.80
2022-12-14T03:17:22.324Z,-0.90
2022-12-14T03:20:15.934Z,-0.90
2022-12-14T03:23:18.298Z,-0.90
2022-12-14T03:26:27.609Z,-0.90
2022-12-14T03:29:25.768Z,-0.90
2022-12-14T03:32:22.623Z,-0.90
2022-12-14T03:35:15.501Z,-0.90
2022-12-14T03:38:08.639Z,-0.90
2022-12-14T03:40:54.543Z,-0.90
2022-12-14T03:44:08.437Z,-0.90
2022-12-14T03:47:24.481Z,-0.90
2022-12-14T03:50:24.274Z,-0.90
2022-12-14T03:53:25.298Z,-0.90
2022-12-14T03:56:40.851Z,-1.00
2022-12-14T03:59:56.565Z,-1.00
2022-12-14T04:03:05.437Z,-1.00
2022-12-14T04:06:08.016Z,-1.10
2022-12-14T04:09:06.653Z,-1.10
2022-12-14T04:12:27.024Z,-1.10
2022-12-14T04:15:39.426Z,-1.10
2022-12-14T04:18:48.658Z,-1.10
2022-12-14T04:22:04.938Z,-1.10
2022-12-14T04:25:18.790Z,-1.10
2022-12-14T04:28:34.669Z,-1.20
2022-12-14T04:31:20.703Z,-1.20
2022-12-14T04:34:07.154Z,-1.20
2022-12-14T04:36:57.108Z,-1.20
2022-12-14T04:40:23.061Z,-1.20
2022-12-14T04:43:14.433Z,-1.20
2022-12-14T04:46:08.197Z,-1.20
2022-12-14T04:49:07.434Z,-1.30
2022-12-14T04:52:07.175Z,-1.30
2022-12-14T04:55:01.807Z,-1.30
2022-12-14T04:57:54.885Z,-1.30
2022-12-14T05:01:08.304Z,-1.40
2022-12-14T05:04:27.304Z,-1.40
2022-12-14T05:07:20.255Z,-1.50
2022-12-14T05:10:20.367Z,-1.50
2022-12-14T05:13:16.886Z,-1.60
2022-12-14T05:16:02.882Z,-1.60
2022-12-14T05:18:49.175Z,-1.70
2022-12-14T05:21:49.401Z,-1.70
2022-12-14T05:24:37.400Z,-1.70
2022-12-14T05:27:22.624Z,-1.80
2022-12-14T05:30:09.124Z,-1.80
2022-12-14T05:32:57.935Z,-1.90
2022-12-14T05:35:43.278Z,-1.90
2022-12-14T05:38:29.247Z,-2.00
2022-12-14T05:41:15.192Z,-2.00
2022-12-14T05:44:00.476Z,-2.10
2022-12-14T05:49:55.443Z,-2.10
2022-12-14T05:52:43.584Z,-2.20
2022-12-14T05:55:29.035Z,-2.20
2022-12-14T05:58:14.306Z,-2.30
2022-12-14T06:01:05.910Z,-2.30
2022-12-14T06:03:54.479Z,-2.30
2022-12-14T06:06:39.852Z,-2.40
2022-12-14T06:09:25.540Z,-2.40
2022-12-14T06:12:10.917Z,-2.40
2022-12-14T06:14:56.427Z,-2.50
2022-12-14T06:17:46.242Z,-2.50
2022-12-14T06:20:34.107Z,-2.60
2022-12-14T06:23:19.453Z,-2.60
2022-12-14T06:26:08.614Z,-2.70
2022-12-14T06:28:55.124Z,-2.70
2022-12-14T06:31:40.758Z,-2.70
2022-12-14T06:34:28.613Z,-2.80
2022-12-14T06:37:17.320Z,-2.80
2022-12-14T06:40:05.094Z,-2.80
2022-12-14T06:42:54.496Z,-2.90
2022-12-14T06:45:39.527Z,-2.90
2022-12-14T06:48:24.941Z,-2.90
2022-12-14T06:51:10.532Z,-2.90
2022-12-14T06:53:57.661Z,-2.90
2022-12-14T06:56:44.728Z,-3.00
2022-12-14T06:59:30.593Z,-2.90
2022-12-14T07:02:16.216Z,-3.00
2022-12-14T07:05:05.486Z,-3.00
2022-12-14T07:07:53.350Z,-3.00
2022-12-14T07:10:39.186Z,-3.00
2022-12-14T07:13:24.878Z,-3.00
2022-12-14T07:16:18.194Z,-3.00
2022-12-14T07:19:04.831Z,-3.00
2022-12-14T07:21:50.675Z,-3.00
2022-12-14T07:24:43.233Z,-3.00
2022-12-14T07:27:29.143Z,-3.00
2022-12-14T07:30:14.871Z,-3.00
2022-12-14T07:33:00.542Z,-3.00
2022-12-14T07:35:47.311Z,-3.00
2022-12-14T07:38:34.783Z,-3.00
2022-12-14T07:41:23.398Z,-3.00
2022-12-14T07:44:10.282Z,-3.10
2022-12-14T07:46:55.563Z,-3.00
2022-12-14T07:49:41.306Z,-3.10
2022-12-14T07:52:26.474Z,-3.00
2022-12-14T07:55:12.049Z,-3.10
2022-12-14T07:58:00.619Z,-3.00
2022-12-14T08:00:46.123Z,-3.00
2022-12-14T08:03:32.144Z,-3.00
2022-12-14T08:06:19.601Z,-3.00
2022-12-14T08:09:06.486Z,-3.00
2022-12-14T08:11:51.633Z,-3.00
2022-12-14T08:14:37.398Z,-3.00
2022-12-14T08:17:22.493Z,-3.10
2022-12-14T08:20:12.922Z,-3.10
2022-12-14T08:22:58.608Z,-3.10
2022-12-14T08:25:44.531Z,-3.10
2022-12-14T08:28:37.186Z,-3.00
2022-12-14T08:31:25.669Z,-3.10
2022-12-14T08:34:11.291Z,-3.00
2022-12-14T08:36:56.617Z,-3.00
2022-12-14T08:39:42.122Z,-2.90
2022-12-14T08:42:27.876Z,-2.90
2022-12-14T08:45:13.535Z,-2.80
2022-12-14T08:48:00.273Z,-2.70
2022-12-14T08:50:45.677Z,-2.60
2022-12-14T08:53:36.855Z,-2.60
2022-12-14T08:56:29.664Z,-2.50
2022-12-14T08:59:30.330Z,-2.50
2022-12-14T09:02:20.643Z,-2.40
2022-12-14T09:05:06.673Z,-2.40
2022-12-14T09:07:52.479Z,-2.30
2022-12-14T09:10:37.868Z,-2.20
2022-12-14T09:13:23.512Z,-2.20
2022-12-14T09:16:19.166Z,-2.20
2022-12-14T09:19:07.651Z,-2.10
2022-12-14T09:21:53.317Z,-2.00
2022-12-14T09:24:38.768Z,-2.00
2022-12-14T09:27:24.297Z,-2.00
2022-12-14T09:30:10.091Z,-1.90
2022-12-14T09:32:55.499Z,-1.90
2022-12-14T09:35:41.263Z,-1.80
2022-12-14T09:38:26.679Z,-1.80
2022-12-14T09:41:40.709Z,-1.80
2022-12-14T09:44:38.243Z,-1.70
2022-12-14T09:47:41.651Z,-1.60
2022-12-14T09:50:27.790Z,-1.60
2022-12-14T09:53:15.466Z,-1.60
2022-12-14T09:56:01.578Z,-1.60
2022-12-14T09:58:58.591Z,-1.40
2022-12-14T10:05:49.109Z,-1.30
2022-12-14T10:09:12.298Z,-1.20
2022-12-14T10:12:09.071Z,-1.10
2022-12-14T10:15:32.699Z,-1.00
2022-12-14T10:18:57.776Z,-1.00
2022-12-14T10:21:49.142Z,-0.90
2022-12-14T10:24:44.390Z,-0.90
2022-12-14T10:27:47.623Z,-0.80
2022-12-14T10:30:36.561Z,-0.80
2022-12-14T10:33:29.698Z,-0.70
2022-12-14T10:36:30.164Z,-0.60
2022-12-14T10:39:43.689Z,-0.60
2022-12-14T10:43:04.185Z,-0.50
2022-12-14T10:46:13.763Z,-0.30
2022-12-14T10:49:36.466Z,-0.20
2022-12-14T10:52:25.938Z,-0.10
2022-12-14T10:55:17.318Z,0.00
2022-12-14T10:58:04.900Z,0.10
2022-12-14T11:00:54.824Z,0.30
2022-12-14T11:03:43.850Z,0.60
2022-12-14T11:06:29.578Z,1.00
2022-12-14T11:09:22.864Z,1.40
2022-12-14T11:12:08.310Z,1.90
2022-12-14T11:15:04.472Z,2.50
2022-12-14T11:18:01.756Z,3.00
2022-12-14T11:20:56.787Z,3.60
2022-12-14T11:23:46.285Z,4.30
2022-12-14T11:26:39.318Z,5.00
2022-12-14T11:29:36.089Z,5.70
2022-12-14T11:32:24.794Z,6.50
2022-12-14T11:35:17.348Z,7.20
2022-12-14T11:38:05.717Z,8.10
2022-12-14T11:40:51.713Z,8.90
2022-12-14T11:43:40.204Z,9.50
2022-12-14T11:46:54.899Z,9.90
2022-12-14T11:49:42.019Z,10.70
2022-12-14T11:52:42.894Z,11.20
2022-12-14T11:55:39.071Z,11.50
2022-12-14T11:58:32.920Z,11.90
2022-12-14T12:01:24.626Z,12.10
2022-12-14T12:04:14.771Z,12.50
2022-12-14T12:07:13.570Z,13.40
2022-12-14T12:10:39.587Z,14.30
2022-12-14T12:13:37.819Z,15.00
2022-12-14T12:16:25.436Z,15.60
2022-12-14T12:19:22.016Z,16.10
2022-12-14T12:22:13.611Z,16.70
2022-12-14T12:25:25.672Z,17.60
2022-12-14T12:28:18.278Z,18.30
2022-12-14T12:31:16.755Z,19.20
2022-12-14T12:34:06.271Z,19.90
2022-12-14T12:37:24.846Z,20.30
2022-12-14T12:40:25.778Z,20.60
2022-12-14T12:43:36.802Z,21.10
2022-12-14T12:47:22.133Z,21.10
2022-12-14T12:50:06.410Z,21.30
2022-12-14T12:53:07.532Z,21.90
2022-12-14T12:55:58.829Z,22.10
2022-12-14T12:58:53.282Z,22.30
2022-12-14T13:01:42.481Z,22.50
2022-12-14T13:04:40.430Z,22.90
2022-12-14T13:07:47.989Z,22.70
2022-12-14T13:11:16.851Z,22.50
2022-12-14T13:13:53.461Z,22.50
2022-12-14T13:16:39.862Z,22.00
2022-12-14T13:19:54.509Z,22.10
2022-12-14T13:22:44.337Z,22.30
2022-12-14T13:26:09.527Z,22.50
2022-12-14T13:29:19.882Z,22.30
2022-12-14T13:32:37.921Z,22.00
2022-12-14T13:36:08.409Z,22.50
2022-12-14T13:38:57.817Z,22.90
2022-12-14T13:41:50.437Z,23.00
2022-12-14T13:44:51.403Z,23.40
2022-12-14T13:47:41.157Z,23.40
2022-12-14T13:50:36.681Z,23.40
2022-12-14T13:53:36.626Z,23.30
2022-12-14T13:56:32.695Z,23.70
2022-12-14T13:59:41.690Z,24.20
2022-12-14T14:02:30.389Z,24.10
2022-12-14T14:05:21.765Z,23.80
2022-12-14T14:08:34.629Z,23.80
2022-12-14T14:11:41.708Z,24.00
2022-12-14T14:15:11.334Z,23.70
2022-12-14T14:18:05.654Z,23.60
2022-12-14T14:21:13.969Z,23.50
2022-12-14T14:24:20.174Z,23.20
2022-12-14T14:27:19.759Z,23.20
2022-12-14T14:30:32.875Z,23.00
2022-12-14T14:33:46.000Z,22.40
2022-12-14T14:36:35.884Z,22.60
2022-12-14T14:39:56.218Z,22.50
2022-12-14T14:42:51.514Z,22.00
2022-12-14T14:45:41.530Z,21.30
2022-12-14T14:48:27.235Z,20.00
2022-12-14T14:51:28.370Z,18.50
2022-12-14T14:54:53.900Z,17.40
2022-12-14T14:57:56.900Z,16.50
2022-12-14T15:00:52.061Z,15.70
2022-12-14T15:03:50.826Z,15.30
2022-12-14T15:06:41.764Z,14.50
2022-12-14T15:09:33.790Z,14.00
2022-12-14T15:12:32.547Z,13.00
2022-12-14T15:15:30.442Z,11.70
2022-12-14T15:18:19.701Z,10.60
2022-12-14T15:21:18.023Z,9.50
2022-12-14T15:24:03.882Z,8.60
2022-12-14T15:26:50.133Z,7.90
2022-12-14T15:29:39.617Z,7.20
2022-12-14T15:32:25.593Z,6.50
2022-12-14T15:35:18.456Z,5.90
2022-12-14T15:38:15.990Z,5.40
2022-12-14T15:41:06.640Z,4.90
2022-12-14T15:43:58.200Z,4.40
2022-12-14T15:46:54.408Z,4.00
2022-12-14T15:50:14.666Z,3.60
2022-12-14T15:53:12.879Z,3.10
2022-12-14T15:56:05.365Z,2.80
2022-12-14T15:58:54.092Z,2.50
2022-12-14T16:01:53.627Z,2.30
2022-12-14T16:04:45.791Z,2.10
2022-12-14T16:07:39.961Z,1.90
2022-12-14T16:10:33.001Z,1.80
2022-12-14T16:13:38.192Z,1.60
2022-12-14T16:16:24.158Z,1.50
2022-12-14T16:19:27.825Z,1.30
2022-12-14T16:22:22.921Z,1.20
2022-12-14T16:25:08.277Z,1.10
2022-12-14T16:27:54.221Z,1.00
2022-12-14T16:30:56.463Z,1.00
2022-12-14T16:33:43.378Z,0.80
2022-12-14T16:36:28.972Z,0.70
2022-12-14T16:39:19.941Z,0.70
2022-12-14T16:42:17.577Z,0.70
2022-12-14T16:45:03.127Z,0.60
2022-12-14T16:47:49.165Z,0.60
2022-12-14T16:53:53.070Z,0.50
2022-12-14T16:56:45.514Z,0.40
2022-12-14T16:59:42.014Z,0.40
2022-12-14T17:02:37.363Z,0.40
2022-12-14T17:05:24.698Z,0.30
2022-12-14T17:08:11.819Z,0.30
2022-12-14T17:11:00.574Z,0.30
2022-12-14T17:13:45.846Z,0.30
2022-12-14T17:16:35.172Z,0.30
2022-12-14T17:19:26.608Z,0.30
2022-12-14T17:22:28.868Z,0.30
2022-12-14T17:25:14.826Z,0.30
2022-12-14T17:28:01.568Z,0.20
2022-12-14T17:30:49.093Z,0.20
2022-12-14T17:33:43.044Z,0.20
2022-12-14T17:36:28.988Z,0.10
2022-12-14T17:39:14.875Z,0.20
2022-12-14T17:42:00.271Z,0.10
2022-12-14T17:44:51.686Z,0.10
2022-12-14T17:47:40.233Z,0.10
2022-12-14T17:50:35.020Z,0.00
2022-12-14T17:53:30.801Z,0.00
2022-12-14T17:56:16.459Z,-0.10
2022-12-14T17:59:02.063Z,-0.10
2022-12-14T18:01:47.603Z,-0.10
2022-12-14T18:04:34.988Z,-0.10
2022-12-14T18:07:20.738Z,-0.10
2022-12-14T18:10:06.450Z,-0.20
2022-12-14T18:12:51.890Z,-0.20
2022-12-14T18:15:59.059Z,-0.20
2022-12-14T18:18:45.979Z,-0.20
2022-12-14T18:21:31.430Z,-0.20
2022-12-14T18:24:22.699Z,-0.20
2022-12-14T18:27:11.318Z,-0.20
2022-12-14T18:29:56.523Z,-0.20
2022-12-14T18:32:42.101Z,-0.30
2022-12-14T18:35:31.659Z,-0.30
2022-12-14T18:38:17.237Z,-0.20
2022-12-14T18:41:05.727Z,-0.20
2022-12-14T18:43:52.462Z,-0.20
2022-12-14T18:46:39.229Z,-0.30
2022-12-14T18:49:24.927Z,-0.30
2022-12-14T18:52:13.086Z,-0.30
2022-12-14T18:54:58.612Z,-0.30
2022-12-14T18:57:45.107Z,-0.30
2022-12-14T19:00:34.003Z,-0.40
2022-12-14T19:03:20.309Z,-0.40
2022-12-14T19:06:42.180Z,-0.40
2022-12-14T19:09:15.074Z,-0.40
2022-12-14T19:12:00.920Z,-0.50
2022-12-14T19:14:49.338Z,-0.50
2022-12-14T19:17:35.046Z,-0.50
2022-12-14T19:20:22.348Z,-0.50
2022-12-14T19:23:13.914Z,-0.50
2022-12-14T19:26:02.378Z,-0.50
2022-12-14T19:28:47.986Z,-0.60
2022-12-14T19:31:33.837Z,-0.50
2022-12-14T19:34:21.693Z,-0.50
2022-12-14T19:37:07.252Z,-0.50
2022-12-14T19:39:53.582Z,-0.50
2022-12-14T19:42:39.010Z,-0.50
2022-12-14T19:45:24.816Z,-0.60
2022-12-14T19:48:13.348Z,-0.60
2022-12-14T19:51:06.722Z,-0.50
2022-12-14T19:53:54.008Z,-0.50
2022-12-14T19:56:39.678Z,-0.50
2022-12-14T19:59:25.074Z,-0.50
2022-12-14T20:02:15.786Z,-0.40
2022-12-14T20:05:01.664Z,-0.40
2022-12-14T20:07:47.115Z,-0.50
2022-12-14T20:10:32.495Z,-0.40
2022-12-14T20:13:18.007Z,-0.40
2022-12-14T20:16:03.564Z,-0.40
2022-12-14T20:18:49.205Z,-0.30
2022-12-14T20:21:34.791Z,-0.30
2022-12-14T20:24:20.682Z,-0.30
2022-12-14T20:27:05.935Z,-0.20
2022-12-14T20:29:51.644Z,-0.20
2022-12-14T20:32:37.609Z,-0.10
2022-12-14T20:35:23.701Z,-0.10
2022-12-14T20:38:11.938Z,-0.10
2022-12-14T20:41:08.634Z,0.00
2022-12-14T20:43:56.221Z,0.00
2022-12-14T20:46:44.452Z,0.10
2022-12-14T20:49:32.936Z,0.20
2022-12-14T20:52:19.012Z,0.30
2022-12-14T20:55:05.657Z,0.40
2022-12-14T20:57:50.964Z,0.50
2022-12-14T21:00:36.635Z,0.50
2022-12-14T21:03:22.843Z,0.50
2022-12-14T21:06:08.378Z,0.50
2022-12-14T21:09:05.015Z,0.50
2022-12-14T21:12:09.941Z,0.50
2022-12-14T21:14:56.346Z,0.50
2022-12-14T21:17:41.561Z,0.40
2022-12-14T21:20:31.117Z,0.40
2022-12-14T21:23:16.778Z,0.40
2022-12-14T21:26:05.908Z,0.40
2022-12-14T21:28:51.234Z,0.50
2022-12-14T21:31:37.791Z,0.40
2022-12-14T21:34:23.842Z,0.50
2022-12-14T21:37:10.205Z,0.50
2022-12-14T21:39:55.826Z,0.50
2022-12-14T21:42:41.566Z,0.60
2022-12-14T21:45:29.046Z,0.60
2022-12-14T21:48:14.944Z,0.70
2022-12-14T21:51:06.615Z,0.70
2022-12-14T21:53:59.534Z,0.70
2022-12-14T21:57:03.643Z,0.70
2022-12-14T21:59:48.892Z,0.60
2022-12-14T22:02:36.099Z,0.50
2022-12-14T22:05:21.656Z,0.40
2022-12-14T22:08:06.993Z,0.40
2022-12-14T22:10:52.641Z,0.30
2022-12-14T22:13:48.364Z,0.40
2022-12-14T22:16:36.704Z,0.40
2022-12-14T22:19:24.439Z,0.40
2022-12-14T22:22:15.450Z,0.40
2022-12-14T22:25:00.472Z,0.40
2022-12-14T22:27:49.581Z,0.40
2022-12-14T22:30:35.602Z,0.40
2022-12-14T22:33:20.890Z,0.50
2022-12-14T22:36:06.454Z,0.50
2022-12-14T22:38:53.616Z,0.50
2022-12-14T22:41:39.437Z,0.50
2022-12-14T22:44:27.319Z,0.60
2022-12-14T22:47:12.723Z,0.70
2022-12-14T22:50:00.956Z,0.60
2022-12-14T22:52:49.593Z,0.60
2022-12-14T22:55:38.386Z,0.50
2022-12-14T22:58:25.596Z,0.40
2022-12-14T23:01:12.815Z,0.40
2022-12-14T23:03:58.290Z,0.40
2022-12-14T23:06:43.895Z,0.40
2022-12-14T23:09:47.842Z,0.40
2022-12-14T23:12:51.678Z,0.50
2022-12-14T23:15:55.437Z,0.50
2022-12-14T23:18:59.572Z,0.60
2022-12-14T23:22:03.595Z,0.50
2022-12-14T23:25:10.479Z,0.50
2022-12-14T23:28:14.448Z,0.40
2022-12-14T23:31:18.201Z,0.40
2022-12-14T23:34:22.411Z,0.30
2022-12-14T23:37:26.161Z,0.30
2022-12-14T23:40:30.361Z,0.30
2022-12-14T23:43:36.280Z,0.30
2022-12-14T23:46:40.193Z,0.30
2022-12-14T23:49:44.338Z,0.30
2022-12-14T23:52:48.156Z,0.30
2022-12-14T23:55:52.078Z,0.40
2022-12-14T23:58:55.996Z,0.40
